Time;durP1;ratioP1;P1;durP2;ratioP2;P2;SDS_P1;SDS_P2;PMS_P1;PMS_P2;Temp;Humidity;BMP_temperature;BMP_pressure;BME280_temperature;BME280_humidity;BME280_pressure;Samples;Min_cycle;Max_cycle;Signal;HPM_P1;HPM_P2
2021/01/18 00:02:44;;;;;;;4.20;3.90;;;;;;;-0.02;80.82;101885.91;6139114;28;20205;-72
2021/01/18 00:05:47;;;;;;;4.10;3.77;;;;;;;0.00;80.59;101872.38;6136336;29;20247;-73
2021/01/18 00:08:51;;;;;;;3.93;3.63;;;;;;;0.13;80.05;101872.25;6139826;29;20213;-73
2021/01/18 00:11:54;;;;;;;3.93;3.73;;;;;;;0.19;79.93;101866.34;6145360;29;20603;-74
2021/01/18 00:14:57;;;;;;;4.43;3.67;;;;;;;0.15;80.39;101860.41;6140234;28;20208;-73
2021/01/18 00:18:02;;;;;;;4.53;4.13;;;;;;;0.02;81.08;101864.19;6132511;29;20211;-74
2021/01/18 00:21:05;;;;;;;3.57;3.37;;;;;;;0.18;80.27;101864.66;6134457;29;20248;-72
2021/01/18 00:24:10;;;;;;;5.20;3.87;;;;;;;0.21;80.08;101859.03;6138064;29;20206;-72
2021/01/18 00:27:14;;;;;;;4.13;3.87;;;;;;;0.14;80.39;101847.09;6144120;29;20232;-72
2021/01/18 00:30:20;;;;;;;5.57;4.27;;;;;;;-0.02;80.82;101851.03;6136775;29;20217;-73
2021/01/18 00:33:25;;;;;;;5.23;4.20;;;;;;;-0.32;81.65;101855.31;6141102;29;20751;-73
2021/01/18 00:36:28;;;;;;;5.07;4.00;;;;;;;-0.35;82.69;101852.88;6136310;29;20220;-74
2021/01/18 00:39:32;;;;;;;4.03;3.87;;;;;;;-0.28;82.34;101852.28;6140736;28;20667;-73
2021/01/18 00:42:35;;;;;;;4.27;4.00;;;;;;;-0.43;83.56;101848.13;6136707;29;20203;-71
2021/01/18 00:45:39;;;;;;;4.10;3.70;;;;;;;-0.16;82.89;101840.59;6118464;29;20292;-72
2021/01/18 00:48:43;;;;;;;3.80;3.60;;;;;;;-0.01;82.15;101843.84;6123085;29;20561;-72
2021/01/18 00:51:46;;;;;;;4.43;4.10;;;;;;;0.12;81.08;101838.31;6139012;29;20674;-73
2021/01/18 00:54:49;;;;;;;3.60;3.30;;;;;;;0.14;80.60;101841.72;6118659;29;20579;-72
2021/01/18 00:58:11;;;;;;;4.00;3.60;;;;;;;0.13;79.84;101826.63;6118576;29;20201;-73
2021/01/18 01:01:18;;;;;;;4.17;3.87;;;;;;;0.08;80.33;101837.72;6117566;29;20233;-74
2021/01/18 01:04:23;;;;;;;4.67;3.73;;;;;;;-0.24;81.89;101826.94;6130608;29;20205;-72
2021/01/18 01:07:53;;;;;;;5.00;4.00;;;;;;;-0.32;83.26;101824.00;6138534;29;20208;-72
2021/01/18 01:10:57;;;;;;;3.73;3.47;;;;;;;-0.05;82.12;101827.13;6134798;29;20675;-72
2021/01/18 01:14:00;;;;;;;3.73;3.53;;;;;;;-0.21;83.06;101826.69;6137554;28;20208;-73
2021/01/18 01:17:03;;;;;;;3.70;3.40;;;;;;;-0.08;82.79;101822.00;6137294;29;21725;-73
2021/01/18 01:20:10;;;;;;;3.60;3.40;;;;;;;-0.36;81.96;101827.88;6133969;29;20213;-73
2021/01/18 01:23:15;;;;;;;3.57;3.47;;;;;;;-0.05;81.82;101823.59;6137531;29;20218;-73
2021/01/18 01:26:18;;;;;;;3.63;3.43;;;;;;;0.09;80.99;101825.16;6138102;29;20214;-72
2021/01/18 01:29:23;;;;;;;4.03;3.73;;;;;;;0.02;81.55;101826.63;6138411;29;20592;-72
2021/01/18 01:32:26;;;;;;;3.87;3.67;;;;;;;-0.01;80.72;101833.97;6135331;29;20645;-73
2021/01/18 01:35:31;;;;;;;3.73;3.37;;;;;;;-0.09;81.68;101831.06;6139927;28;20212;-72
2021/01/18 01:38:34;;;;;;;4.07;3.77;;;;;;;-0.24;81.74;101826.94;6134924;28;20722;-72
2021/01/18 01:41:37;;;;;;;3.67;3.47;;;;;;;-0.06;82.03;101820.06;6154283;28;20682;-71
2021/01/18 01:44:41;;;;;;;3.87;3.60;;;;;;;0.05;81.11;101826.41;6135520;28;20312;-73
2021/01/18 01:47:46;;;;;;;3.53;3.30;;;;;;;-0.01;81.13;101807.13;6140585;29;20227;-72
2021/01/18 01:50:51;;;;;;;3.33;3.13;;;;;;;-0.17;81.74;101812.03;6138153;29;20205;-71
2021/01/18 01:54:42;;;;;;;3.70;3.50;;;;;;;0.05;80.68;101810.28;6125072;29;20645;-73
2021/01/18 01:58:30;;;;;;;3.40;3.30;;;;;;;0.06;80.83;101806.63;6134386;28;20223;-73
2021/01/18 02:01:52;;;;;;;4.10;3.80;;;;;;;0.20;80.32;101796.47;6133206;28;20242;-74
2021/01/18 02:04:56;;;;;;;3.80;3.23;;;;;;;0.17;79.25;101787.81;6135411;28;20200;-72
2021/01/18 02:08:00;;;;;;;3.97;3.67;;;;;;;-0.08;79.81;101779.09;6149327;28;20192;-72
2021/01/18 02:11:06;;;;;;;3.20;3.10;;;;;;;-0.17;80.71;101790.59;6129194;28;20640;-73
2021/01/18 02:14:29;;;;;;;3.70;3.37;;;;;;;-0.07;79.71;101782.63;6128184;28;21474;-72
2021/01/18 02:17:40;;;;;;;3.27;3.00;;;;;;;-0.04;79.56;101775.19;6135771;29;20245;-72
2021/01/18 02:21:16;;;;;;;3.10;3.00;;;;;;;-0.39;80.58;101777.22;6142570;29;20725;-73
2021/01/18 02:25:16;;;;;;;2.90;2.80;;;;;;;-0.21;80.99;101778.41;6134115;28;20199;-73
2021/01/18 02:28:52;;;;;;;4.47;3.10;;;;;;;-0.16;80.94;101765.47;6130225;28;20350;-73
2021/01/18 02:32:17;;;;;;;3.87;3.20;;;;;;;-0.12;80.41;101750.81;6130198;29;20344;-74
2021/01/18 02:36:08;;;;;;;3.10;2.90;;;;;;;-0.13;80.64;101757.16;6130556;29;20664;-74
2021/01/18 02:39:21;;;;;;;3.47;3.23;;;;;;;-0.05;80.08;101752.00;6133756;28;20212;-74
2021/01/18 02:42:30;;;;;;;2.67;2.57;;;;;;;0.02;78.95;101751.50;6134651;28;22345;-74
2021/01/18 02:45:36;;;;;;;2.93;2.83;;;;;;;-0.14;79.01;101758.16;6137086;28;20710;-73
2021/01/18 02:48:39;;;;;;;2.97;2.83;;;;;;;-0.15;80.50;101761.78;6130647;28;20212;-73
2021/01/18 02:51:47;;;;;;;2.83;2.73;;;;;;;0.04;79.73;101749.56;6128998;29;20341;-73
2021/01/18 02:54:50;;;;;;;3.23;2.83;;;;;;;0.11;78.94;101751.59;6132794;29;20206;-73
2021/01/18 02:57:58;;;;;;;2.97;2.77;;;;;;;-0.04;79.39;101748.34;6138995;28;20200;-73
2021/01/18 03:01:12;;;;;;;2.83;2.73;;;;;;;-0.49;80.56;101741.41;6127003;28;20218;-74
2021/01/18 03:04:28;;;;;;;3.23;3.03;;;;;;;-0.10;79.41;101738.13;6129694;29;20201;-73
2021/01/18 03:07:42;;;;;;;3.20;3.03;;;;;;;-0.49;80.26;101741.41;6132572;28;20628;-74
2021/01/18 03:10:54;;;;;;;3.17;3.07;;;;;;;-0.16;80.28;101738.66;6134268;28;20213;-73
2021/01/18 03:14:02;;;;;;;2.70;2.60;;;;;;;-0.25;80.47;101739.38;6139497;28;20218;-73
2021/01/18 03:17:13;;;;;;;2.63;2.57;;;;;;;-0.12;80.26;101739.22;6133537;29;20265;-73
2021/01/18 03:20:20;;;;;;;2.97;2.77;;;;;;;0.04;79.38;101728.09;6127320;28;20299;-73
2021/01/18 03:23:24;;;;;;;2.80;2.60;;;;;;;-0.03;79.43;101727.75;6130272;28;20310;-73
2021/01/18 03:26:27;;;;;;;2.87;2.67;;;;;;;0.02;79.53;101724.69;6136835;28;20216;-73
2021/01/18 03:29:31;;;;;;;2.57;2.47;;;;;;;0.02;78.97;101725.53;6133081;28;20188;-72
2021/01/18 03:32:35;;;;;;;2.40;2.30;;;;;;;-0.12;79.31;101723.13;6127583;28;20201;-72
2021/01/18 03:35:38;;;;;;;2.90;2.77;;;;;;;0.02;78.98;101730.06;6130847;28;20198;-73
2021/01/18 03:38:42;;;;;;;2.30;2.20;;;;;;;-0.17;79.33;101731.56;6136984;28;20234;-72
2021/01/18 03:41:46;;;;;;;2.70;2.60;;;;;;;-0.17;80.30;101736.94;6135324;29;20343;-72
2021/01/18 03:44:49;;;;;;;2.87;2.77;;;;;;;0.04;79.44;101728.94;6133944;29;20199;-72
2021/01/18 03:47:52;;;;;;;2.60;2.60;;;;;;;0.11;78.73;101734.63;6135127;29;20201;-72
2021/01/18 03:50:56;;;;;;;2.80;2.77;;;;;;;0.11;78.92;101719.41;6131387;29;20388;-72
2021/01/18 03:54:00;;;;;;;3.07;2.87;;;;;;;0.17;77.68;101718.88;6135699;29;20199;-71
2021/01/18 03:57:04;;;;;;;2.33;2.23;;;;;;;0.11;78.13;101707.81;6144067;29;20194;-73
2021/01/18 04:00:09;;;;;;;2.43;2.33;;;;;;;-0.33;79.16;101715.03;6141821;29;20581;-73
2021/01/18 04:03:20;;;;;;;2.40;2.40;;;;;;;-0.13;79.51;101716.91;6131794;28;20576;-72
2021/01/18 04:06:23;;;;;;;2.57;2.47;;;;;;;-0.52;80.84;101724.72;6129926;29;20288;-72
2021/01/18 04:09:27;;;;;;;2.87;2.77;;;;;;;-0.13;79.68;101722.28;6139327;28;20686;-72
2021/01/18 04:12:31;;;;;;;2.50;2.50;;;;;;;-0.02;79.72;101719.56;6147375;29;20196;-72
2021/01/18 04:15:35;;;;;;;2.33;2.30;;;;;;;0.10;79.20;101722.22;6132879;28;20208;-72
2021/01/18 04:18:38;;;;;;;2.90;2.80;;;;;;;0.13;78.57;101717.44;6146202;28;20206;-72
2021/01/18 04:21:42;;;;;;;2.20;2.20;;;;;;;-0.12;79.24;101713.25;6134412;29;20886;-72
2021/01/18 04:24:46;;;;;;;2.20;2.20;;;;;;;0.04;79.02;101711.97;6139297;28;20689;-72
2021/01/18 04:27:52;;;;;;;2.20;2.20;;;;;;;0.08;79.42;101713.44;6135410;28;20288;-72
2021/01/18 04:30:55;;;;;;;2.37;2.27;;;;;;;0.00;79.10;101706.88;6149565;28;20682;-72
2021/01/18 04:33:58;;;;;;;2.90;2.80;;;;;;;-0.11;79.27;101704.25;6136795;29;20196;-72
2021/01/18 04:37:01;;;;;;;2.60;2.47;;;;;;;-0.06;79.81;101704.72;6144731;28;20217;-72
2021/01/18 04:40:08;;;;;;;2.40;2.37;;;;;;;0.09;79.45;101694.53;6133236;29;20230;-72
2021/01/18 04:43:13;;;;;;;2.83;2.73;;;;;;;0.03;79.37;101686.16;6141378;28;20320;-74
2021/01/18 04:46:18;;;;;;;2.57;2.43;;;;;;;0.08;78.90;101686.63;6143837;28;20260;-72
2021/01/18 04:49:22;;;;;;;2.70;2.50;;;;;;;0.05;78.36;101686.88;6129576;28;20553;-73
2021/01/18 04:52:41;;;;;;;2.40;2.20;;;;;;;0.06;77.98;101677.81;6133819;29;20195;-72
2021/01/18 04:56:10;;;;;;;2.83;2.30;;;;;;;0.03;78.99;101688.84;6134007;28;20199;-74
2021/01/18 04:59:20;;;;;;;3.60;2.90;;;;;;;0.10;78.26;101679.28;6134806;28;20740;-73
2021/01/18 05:02:24;;;;;;;2.90;2.80;;;;;;;0.12;77.79;101678.16;6139930;28;20266;-73
2021/01/18 05:05:30;;;;;;;2.87;2.67;;;;;;;-0.02;78.13;101676.63;6131375;28;20194;-72
2021/01/18 05:08:53;;;;;;;3.37;2.70;;;;;;;-0.11;78.82;101682.78;6130031;29;20404;-72
2021/01/18 05:12:00;;;;;;;3.13;2.93;;;;;;;0.00;78.80;101680.03;6135887;29;20201;-71
2021/01/18 05:15:05;;;;;;;3.57;3.40;;;;;;;-0.18;79.13;101673.53;6125477;28;20691;-72
2021/01/18 05:18:12;;;;;;;4.90;4.27;;;;;;;-0.08;78.45;101674.47;6137531;29;20294;-73
2021/01/18 05:21:17;;;;;;;6.57;4.63;;;;;;;0.17;77.37;101669.72;6128595;29;20239;-73
2021/01/18 05:24:21;;;;;;;7.07;5.50;;;;;;;0.06;78.29;101667.09;6139006;29;20262;-73
2021/01/18 05:27:26;;;;;;;7.43;5.20;;;;;;;0.13;76.84;101662.94;6129594;28;20567;-74
2021/01/18 05:30:31;;;;;;;7.37;6.13;;;;;;;0.07;77.47;101668.81;6130356;29;20209;-72
2021/01/18 05:33:38;;;;;;;12.53;6.47;;;;;;;-0.11;78.20;101657.78;6128306;29;20216;-72
2021/01/18 05:36:43;;;;;;;14.97;6.63;;;;;;;-0.35;78.43;101668.72;6143701;28;20617;-73
2021/01/18 05:39:46;;;;;;;15.70;7.47;;;;;;;-0.14;77.95;101663.41;6133132;29;20236;-72
2021/01/18 05:42:51;;;;;;;14.23;7.93;;;;;;;-0.38;79.06;101668.97;6126039;29;20224;-72
2021/01/18 05:46:03;;;;;;;12.17;6.53;;;;;;;-0.11;78.09;101653.28;6125015;29;20641;-72
2021/01/18 05:49:10;;;;;;;15.60;7.10;;;;;;;-0.09;78.36;101648.63;6132551;28;20636;-71
2021/01/18 05:52:25;;;;;;;13.57;6.80;;;;;;;0.00;78.37;101652.38;6121273;28;20647;-72
2021/01/18 05:55:31;;;;;;;10.27;6.33;;;;;;;-0.12;78.02;101646.19;6133200;28;20285;-72
2021/01/18 05:58:35;;;;;;;12.77;6.90;;;;;;;-0.65;79.54;101655.16;6139204;28;20200;-73
2021/01/18 06:01:39;;;;;;;14.30;7.90;;;;;;;-0.72;80.71;101645.94;6141333;28;20208;-72
2021/01/18 06:04:43;;;;;;;11.13;6.20;;;;;;;-0.33;79.64;101645.31;6134937;28;20201;-72
2021/01/18 06:07:47;;;;;;;7.00;6.23;;;;;;;-0.14;78.16;101645.50;6131095;29;20441;-72
2021/01/18 06:10:52;;;;;;;7.63;5.57;;;;;;;-0.15;78.84;101643.78;6133630;29;20201;-73
2021/01/18 06:14:02;;;;;;;6.63;4.70;;;;;;;-0.14;77.91;101629.41;6135117;28;20196;-72
2021/01/18 06:17:06;;;;;;;4.60;4.20;;;;;;;-0.14;77.71;101648.16;6147061;28;20196;-73
2021/01/18 06:20:18;;;;;;;7.67;5.30;;;;;;;-0.56;79.26;101649.03;6134685;28;20233;-73
2021/01/18 06:23:22;;;;;;;5.97;4.80;;;;;;;-0.45;79.61;101646.34;6122000;29;20645;-73
2021/01/18 06:26:35;;;;;;;8.67;5.13;;;;;;;-0.17;78.43;101647.56;6136514;29;20205;-76
2021/01/18 06:29:42;;;;;;;10.17;5.30;;;;;;;-0.38;78.68;101646.66;6131984;28;20645;-72
2021/01/18 06:32:45;;;;;;;11.00;5.20;;;;;;;-0.41;79.04;101653.13;6143345;28;20755;-72
2021/01/18 06:35:48;;;;;;;10.93;5.80;;;;;;;-0.26;78.88;101646.53;6134351;28;20545;-73
2021/01/18 06:39:07;;;;;;;10.47;6.27;;;;;;;-0.15;77.67;101643.78;6133697;28;20230;-73
2021/01/18 06:42:11;;;;;;;9.83;6.17;;;;;;;-0.02;77.96;101655.19;6126256;28;20324;-75
2021/01/18 06:45:20;;;;;;;12.37;6.57;;;;;;;-0.02;77.67;101647.13;6140435;29;20252;-73
2021/01/18 06:48:24;;;;;;;11.30;6.03;;;;;;;0.03;77.96;101651.28;6132355;29;20664;-76
2021/01/18 06:51:29;;;;;;;12.73;6.23;;;;;;;0.00;78.14;101641.66;6121174;29;20198;-73
2021/01/18 06:54:36;;;;;;;11.73;6.10;;;;;;;-0.11;78.08;101650.59;6134816;28;20275;-73
2021/01/18 06:58:03;;;;;;;10.60;5.83;;;;;;;-0.16;78.15;101647.47;6145892;28;20201;-73
2021/01/18 07:01:13;;;;;;;10.63;5.10;;;;;;;-0.33;78.91;101634.59;6137200;29;20266;-73
2021/01/18 07:04:30;;;;;;;8.93;4.83;;;;;;;-0.04;77.68;101635.69;6125641;29;20534;-72
2021/01/18 07:07:34;;;;;;;7.50;4.70;;;;;;;0.02;76.77;101638.84;6140885;28;20200;-72
2021/01/18 07:10:40;;;;;;;9.10;5.17;;;;;;;-0.20;78.67;101640.63;6138039;28;20288;-71
2021/01/18 07:13:48;;;;;;;7.03;4.77;;;;;;;-0.07;78.50;101633.25;6132727;28;20270;-73
2021/01/18 07:16:52;;;;;;;7.73;5.10;;;;;;;-0.14;78.57;101625.84;6129990;29;20197;-73
2021/01/18 07:19:59;;;;;;;8.30;4.63;;;;;;;-0.06;76.96;101626.06;6130622;29;20193;-73
2021/01/18 07:23:32;;;;;;;7.77;4.57;;;;;;;-0.04;78.01;101627.63;6131676;28;20223;-72
2021/01/18 07:26:56;;;;;;;6.27;4.67;;;;;;;-0.15;78.35;101622.31;6141094;28;20322;-73
2021/01/18 07:30:01;;;;;;;5.63;4.37;;;;;;;-0.03;77.55;101626.63;6138771;29;20224;-72
2021/01/18 07:33:07;;;;;;;5.30;4.73;;;;;;;-0.08;77.61;101634.22;6134988;29;20209;-73
2021/01/18 07:36:22;;;;;;;6.23;4.23;;;;;;;-0.10;78.29;101630.81;6137754;28;20221;-71
2021/01/18 07:39:31;;;;;;;4.70;4.30;;;;;;;-0.19;77.82;101615.53;6131296;29;20236;-72
2021/01/18 07:42:39;;;;;;;9.50;4.03;;;;;;;-0.43;79.27;101616.69;6134560;29;20221;-72
2021/01/18 07:45:47;;;;;;;4.77;4.23;;;;;;;-0.39;79.74;101616.34;6116626;29;20206;-72
2021/01/18 07:48:51;;;;;;;4.73;3.77;;;;;;;-0.17;79.11;101612.69;6133125;28;20557;-72
2021/01/18 07:52:25;;;;;;;7.00;4.40;;;;;;;-0.18;78.09;101616.38;6129305;28;20671;-72
2021/01/18 07:55:29;;;;;;;8.37;3.93;;;;;;;-0.57;78.97;101615.19;6134348;28;20255;-72
2021/01/18 07:58:32;;;;;;;4.00;3.70;;;;;;;-0.38;79.58;101609.13;6129191;28;20205;-72
2021/01/18 08:01:37;;;;;;;3.73;3.50;;;;;;;-0.15;78.50;101616.94;6131148;28;20224;-73
2021/01/18 08:04:48;;;;;;;3.33;3.10;;;;;;;-0.02;78.88;101622.13;6128957;28;20200;-74
2021/01/18 08:08:05;;;;;;;4.13;3.37;;;;;;;-0.18;78.26;101617.22;6129082;28;20675;-75
2021/01/18 08:11:17;;;;;;;6.17;3.17;;;;;;;-0.36;79.22;101616.06;6130028;28;20335;-73
2021/01/18 08:14:21;;;;;;;3.50;3.20;;;;;;;-0.26;79.55;101619.72;6130339;28;20202;-73
2021/01/18 08:17:24;;;;;;;3.50;3.30;;;;;;;-0.38;79.19;101619.84;6132376;28;20263;-73
2021/01/18 08:20:29;;;;;;;3.50;3.20;;;;;;;-0.47;80.11;101620.63;6129605;28;20295;-73
2021/01/18 08:23:42;;;;;;;3.40;3.03;;;;;;;-0.36;79.62;101626.78;6135027;29;20238;-72
2021/01/18 08:26:59;;;;;;;3.87;3.50;;;;;;;-0.29;79.53;101630.69;6138474;28;20306;-73
2021/01/18 08:30:15;;;;;;;3.77;3.43;;;;;;;-0.25;79.55;101616.03;6135632;28;20200;-73
2021/01/18 08:33:22;;;;;;;3.53;3.33;;;;;;;-0.25;79.93;101621.38;6133242;28;20220;-72
2021/01/18 08:36:33;;;;;;;5.73;3.80;;;;;;;-0.21;79.41;101614.81;6133291;28;20298;-72
2021/01/18 08:39:38;;;;;;;3.77;3.33;;;;;;;-0.07;79.51;101625.22;6132968;28;20241;-73
2021/01/18 08:42:43;;;;;;;5.20;3.23;;;;;;;-0.07;78.88;101625.22;6135601;28;20218;-76
2021/01/18 08:45:47;;;;;;;4.60;3.43;;;;;;;0.04;78.63;101613.56;6142900;29;20237;-72
2021/01/18 08:49:20;;;;;;;4.60;3.70;;;;;;;0.18;78.66;101607.03;6141731;29;20208;-73
2021/01/18 08:52:30;;;;;;;4.87;3.40;;;;;;;0.26;78.07;101602.69;6142898;29;20295;-72
2021/01/18 08:55:52;;;;;;;5.20;3.93;;;;;;;0.11;78.81;101611.19;6138794;29;20205;-73
2021/01/18 08:58:57;;;;;;;3.57;3.27;;;;;;;0.08;78.69;101606.13;6135425;28;20206;-75
2021/01/18 09:02:00;;;;;;;6.00;3.90;;;;;;;0.05;78.82;101607.25;6138936;29;20247;-73
2021/01/18 09:05:18;;;;;;;4.70;4.23;;;;;;;0.12;79.32;101602.19;6135820;29;20959;-73
2021/01/18 09:08:23;;;;;;;4.90;4.33;;;;;;;-0.07;78.81;101603.75;6126330;28;20293;-73
2021/01/18 09:11:27;;;;;;;5.30;4.27;;;;;;;0.02;78.53;101609.31;6143849;28;20259;-71
2021/01/18 09:14:30;;;;;;;4.93;4.53;;;;;;;-0.17;79.11;101602.81;6157597;28;20194;-72
2021/01/18 09:17:34;;;;;;;4.60;4.27;;;;;;;-0.15;79.25;101606.22;6149966;28;20196;-72
2021/01/18 09:20:39;;;;;;;11.83;5.13;;;;;;;-0.17;79.52;101604.66;6136369;29;20225;-72
2021/01/18 09:23:44;;;;;;;5.33;4.83;;;;;;;-0.17;79.50;101605.50;6144901;28;20321;-72
2021/01/18 09:26:47;;;;;;;5.13;4.63;;;;;;;-0.11;80.00;101606.81;6137792;28;20210;-73
2021/01/18 09:29:59;;;;;;;5.93;4.37;;;;;;;0.03;79.98;101605.66;6138737;28;20607;-72
2021/01/18 09:33:05;;;;;;;5.17;4.60;;;;;;;0.03;79.39;101608.34;6155942;28;20250;-72
2021/01/18 09:36:14;;;;;;;7.90;4.30;;;;;;;-0.16;78.86;101604.53;6142932;28;20202;-73
2021/01/18 09:39:20;;;;;;;6.70;4.00;;;;;;;0.21;79.14;101604.06;6139919;28;20244;-73
2021/01/18 09:42:46;;;;;;;5.50;3.67;;;;;;;0.38;78.32;101598.09;6137562;28;20314;-74
2021/01/18 09:45:56;;;;;;;4.03;3.73;;;;;;;0.24;78.01;101607.34;6142011;28;20201;-72
2021/01/18 09:49:01;;;;;;;4.03;3.73;;;;;;;0.22;78.83;101608.47;6148880;28;20407;-72
2021/01/18 09:52:05;;;;;;;6.97;3.90;;;;;;;0.26;77.55;101604.50;6146657;28;20563;-72
2021/01/18 09:55:16;;;;;;;3.33;3.13;;;;;;;0.44;77.07;101601.09;6149581;28;20209;-72
2021/01/18 09:58:23;;;;;;;5.77;3.57;;;;;;;0.51;76.70;101594.19;6142952;28;20205;-72
2021/01/18 10:01:32;;;;;;;4.30;4.10;;;;;;;0.48;77.23;101593.63;6142486;28;20205;-72
2021/01/18 10:04:38;;;;;;;3.93;3.63;;;;;;;0.39;77.21;101589.06;6138812;28;20185;-73
2021/01/18 10:07:46;;;;;;;3.97;3.73;;;;;;;0.55;76.35;101584.06;6140425;28;20194;-74
2021/01/18 10:10:51;;;;;;;9.20;4.63;;;;;;;0.48;77.44;101590.94;6140236;28;20283;-72
2021/01/18 10:14:01;;;;;;;5.10;4.33;;;;;;;0.46;77.07;101579.50;6145144;28;20203;-73
2021/01/18 10:17:07;;;;;;;4.83;4.40;;;;;;;0.49;77.75;101582.75;6148146;28;20230;-72
2021/01/18 10:20:13;;;;;;;5.57;5.03;;;;;;;0.41;78.00;101573.69;6135198;28;20593;-72
2021/01/18 10:23:17;;;;;;;13.83;4.50;;;;;;;0.52;78.42;101573.56;6145882;28;20216;-72
2021/01/18 10:26:24;;;;;;;4.53;4.13;;;;;;;0.29;77.19;101566.69;6149327;28;20213;-77
2021/01/18 10:29:28;;;;;;;4.73;4.27;;;;;;;0.51;77.96;101569.22;6143251;28;20209;-72
2021/01/18 10:32:38;;;;;;;6.40;4.30;;;;;;;0.63;77.39;101571.66;6133723;28;20215;-75
2021/01/18 10:35:42;;;;;;;5.37;4.73;;;;;;;0.65;77.36;101558.09;6142468;28;20206;-73
2021/01/18 10:38:45;;;;;;;5.37;4.87;;;;;;;0.73;77.05;101560.94;6143011;28;20242;-75
2021/01/18 10:41:51;;;;;;;6.67;4.97;;;;;;;0.76;76.32;101555.31;6147682;28;20381;-74
2021/01/18 10:44:57;;;;;;;5.57;4.93;;;;;;;0.77;76.65;101551.63;6141842;28;20208;-72
2021/01/18 10:48:01;;;;;;;5.73;4.80;;;;;;;0.73;76.62;101549.34;6133873;28;20319;-73
2021/01/18 10:51:05;;;;;;;8.03;5.07;;;;;;;0.72;76.35;101540.44;6135551;29;20213;-72
2021/01/18 10:54:10;;;;;;;7.50;5.00;;;;;;;0.70;77.23;101538.88;6151215;28;20197;-72
2021/01/18 10:57:27;;;;;;;8.80;5.77;;;;;;;0.68;78.22;101536.34;6123778;29;20214;-74
2021/01/18 11:00:33;;;;;;;6.77;5.13;;;;;;;0.63;77.68;101538.59;6126078;29;20260;-72
2021/01/18 11:03:44;;;;;;;10.73;5.30;;;;;;;0.83;77.45;101544.84;6141144;28;20223;-75
2021/01/18 11:06:50;;;;;;;6.67;5.53;;;;;;;0.73;76.53;101534.09;6144377;28;20202;-73
2021/01/18 11:09:55;;;;;;;6.37;5.50;;;;;;;0.77;77.02;101535.50;6133457;28;20744;-72
2021/01/18 11:13:03;;;;;;;8.83;5.33;;;;;;;0.70;77.16;101534.34;6117387;29;20534;-73
2021/01/18 11:16:11;;;;;;;11.13;6.03;;;;;;;0.72;77.35;101528.88;6129028;29;20302;-73
2021/01/18 11:19:15;;;;;;;6.90;5.20;;;;;;;0.84;76.74;101536.69;6149402;28;20537;-73
2021/01/18 11:22:18;;;;;;;7.27;5.53;;;;;;;0.74;76.76;101535.81;6142728;28;20304;-72
2021/01/18 11:25:22;;;;;;;6.23;4.60;;;;;;;0.77;78.35;101529.31;6146248;28;20678;-74
2021/01/18 11:28:26;;;;;;;6.53;5.10;;;;;;;0.90;76.65;101530.72;6135926;29;20657;-74
2021/01/18 11:31:29;;;;;;;7.13;5.00;;;;;;;0.87;77.30;101520.28;6128083;29;20684;-72
2021/01/18 11:34:37;;;;;;;8.13;5.00;;;;;;;0.82;77.26;101521.69;6129043;29;20446;-72
2021/01/18 11:37:41;;;;;;;5.43;4.90;;;;;;;0.72;77.17;101532.38;6139221;29;20578;-73
2021/01/18 11:40:44;;;;;;;5.40;4.47;;;;;;;0.75;77.88;101518.69;6138180;28;20316;-71
2021/01/18 11:43:48;;;;;;;6.83;4.53;;;;;;;0.75;78.45;101516.00;6133887;28;20348;-72
2021/01/18 11:46:54;;;;;;;6.10;4.77;;;;;;;0.94;77.67;101510.69;6146228;28;20391;-73
2021/01/18 11:49:58;;;;;;;5.47;4.37;;;;;;;0.70;77.66;101523.63;6135941;29;20311;-73
2021/01/18 11:53:02;;;;;;;5.53;4.50;;;;;;;0.82;78.31;101511.78;6144201;28;20216;-72
2021/01/18 11:56:05;;;;;;;4.93;4.53;;;;;;;0.75;79.18;101499.88;6141180;28;20666;-73
2021/01/18 11:59:10;;;;;;;5.67;4.03;;;;;;;0.75;77.95;101505.25;6138221;28;20649;-73
2021/01/18 12:02:19;;;;;;;4.70;3.40;;;;;;;0.90;78.18;101503.88;6138631;28;20249;-73
2021/01/18 12:05:25;;;;;;;6.80;3.80;;;;;;;0.81;77.94;101502.03;6126378;29;20762;-73
2021/01/18 12:08:28;;;;;;;4.13;3.83;;;;;;;0.64;78.54;101500.84;6128412;29;20865;-74
2021/01/18 12:11:35;;;;;;;3.97;3.77;;;;;;;0.85;78.74;101502.59;6137997;29;20334;-73
2021/01/18 12:14:39;;;;;;;3.60;3.40;;;;;;;0.80;78.33;101502.16;6142618;29;20652;-74
2021/01/18 12:17:43;;;;;;;4.23;3.93;;;;;;;0.91;78.34;101504.72;6142817;28;20193;-73
2021/01/18 12:20:47;;;;;;;4.20;3.90;;;;;;;0.89;78.39;101496.81;6152627;28;20203;-73
2021/01/18 12:23:51;;;;;;;4.33;3.90;;;;;;;0.57;78.69;101506.88;6145303;28;20622;-77
2021/01/18 12:26:54;;;;;;;4.33;4.03;;;;;;;0.85;78.86;101495.38;6145555;28;20203;-73
2021/01/18 12:29:59;;;;;;;4.27;3.87;;;;;;;0.98;78.97;101501.34;6130475;29;20801;-73
2021/01/18 12:33:04;;;;;;;4.97;4.57;;;;;;;0.78;79.34;101483.50;6124122;29;20567;-72
2021/01/18 12:36:24;;;;;;;8.53;5.70;;;;;;;0.90;78.68;101493.13;6137280;28;20210;-73
2021/01/18 12:39:27;;;;;;;11.23;6.23;;;;;;;0.78;79.88;101488.00;6141390;28;20285;-73
2021/01/18 12:42:30;;;;;;;11.27;6.13;;;;;;;0.74;79.33;101478.53;6139463;28;20234;-73
2021/01/18 12:45:34;;;;;;;10.93;7.00;;;;;;;0.86;78.12;101475.59;6136873;29;20297;-73
2021/01/18 12:48:38;;;;;;;13.33;6.93;;;;;;;0.92;78.25;101480.41;6136532;29;20212;-73
2021/01/18 12:51:41;;;;;;;17.60;8.37;;;;;;;0.75;78.88;101483.75;6137040;29;20208;-74
2021/01/18 12:54:47;;;;;;;12.43;7.50;;;;;;;0.94;78.02;101473.06;6141105;29;20207;-73
2021/01/18 12:57:50;;;;;;;12.57;7.20;;;;;;;0.93;78.25;101473.19;6143268;29;20743;-73
2021/01/18 13:00:55;;;;;;;14.27;7.07;;;;;;;0.81;79.33;101458.19;6135807;29;20210;-74
2021/01/18 13:03:59;;;;;;;16.43;7.73;;;;;;;1.06;78.62;101461.19;6134580;29;20222;-73
2021/01/18 13:07:02;;;;;;;10.27;7.00;;;;;;;1.01;78.42;101455.38;6141716;29;20237;-72
2021/01/18 13:10:07;;;;;;;10.50;6.53;;;;;;;0.79;79.44;101461.03;6135660;29;20211;-72
2021/01/18 13:13:14;;;;;;;11.87;6.77;;;;;;;0.75;78.67;101456.91;6135995;28;20616;-73
2021/01/18 13:16:19;;;;;;;7.33;5.30;;;;;;;0.90;78.85;101455.50;6139095;29;20236;-73
2021/01/18 13:19:23;;;;;;;10.53;5.83;;;;;;;0.89;79.28;101448.44;6128092;29;20438;-72
2021/01/18 13:22:27;;;;;;;6.63;5.70;;;;;;;1.08;78.49;101443.06;6130333;28;20642;-72
2021/01/18 13:25:30;;;;;;;6.00;5.50;;;;;;;1.20;77.92;101447.34;6135989;28;20226;-73
2021/01/18 13:28:33;;;;;;;9.40;5.63;;;;;;;1.13;77.49;101451.56;6133818;28;20209;-73
2021/01/18 13:31:40;;;;;;;6.60;5.27;;;;;;;0.78;79.24;101439.66;6131454;28;20336;-72
2021/01/18 13:34:43;;;;;;;8.50;5.27;;;;;;;0.91;79.45;101430.34;6129098;28;20259;-74
2021/01/18 13:37:46;;;;;;;4.63;4.17;;;;;;;1.05;78.40;101421.84;6135763;29;20315;-72
2021/01/18 13:40:49;;;;;;;6.30;4.60;;;;;;;0.94;78.39;101427.38;6136462;29;20296;-74
2021/01/18 13:43:54;;;;;;;8.87;4.80;;;;;;;0.72;80.02;101430.31;6125167;28;20412;-73
2021/01/18 13:46:58;;;;;;;4.33;4.03;;;;;;;0.60;80.17;101426.06;6141214;29;20213;-73
2021/01/18 13:50:03;;;;;;;4.97;4.50;;;;;;;0.65;79.26;101407.69;6138729;29;20208;-72
2021/01/18 13:53:08;;;;;;;4.47;4.17;;;;;;;0.84;79.32;101423.84;6133167;29;20626;-72
2021/01/18 13:56:14;;;;;;;4.03;3.83;;;;;;;0.94;79.00;101418.47;6138550;29;20518;-74
2021/01/18 13:59:18;;;;;;;5.90;4.10;;;;;;;1.08;78.64;101421.56;6141984;29;20206;-72
2021/01/18 14:02:23;;;;;;;5.30;4.60;;;;;;;1.01;78.26;101427.66;6141236;29;20671;-72
2021/01/18 14:05:26;;;;;;;4.50;4.20;;;;;;;1.09;78.36;101428.66;6137564;28;20221;-73
2021/01/18 14:08:30;;;;;;;4.50;4.17;;;;;;;1.00;78.95;101417.91;6127279;28;20279;-72
2021/01/18 14:11:34;;;;;;;4.33;4.07;;;;;;;0.96;78.77;101422.72;6138701;28;20967;-72
2021/01/18 14:14:37;;;;;;;5.27;3.90;;;;;;;0.99;78.84;101427.81;6134973;28;20243;-73
2021/01/18 14:17:42;;;;;;;4.70;4.20;;;;;;;0.98;78.92;101431.47;6137336;29;20204;-73
2021/01/18 14:20:45;;;;;;;5.40;4.60;;;;;;;1.00;78.95;101424.13;6133344;28;20398;-74
2021/01/18 14:23:48;;;;;;;5.63;4.53;;;;;;;0.93;79.43;101431.06;6128774;28;20215;-74
2021/01/18 14:26:52;;;;;;;5.83;5.13;;;;;;;0.47;80.72;101430.84;6134771;29;20648;-74
2021/01/18 14:29:55;;;;;;;5.00;4.60;;;;;;;0.74;80.81;101427.50;6133157;28;20206;-73
2021/01/18 14:32:59;;;;;;;6.03;4.53;;;;;;;0.85;80.38;101433.59;6130824;29;20210;-73
2021/01/18 14:36:05;;;;;;;6.13;4.50;;;;;;;0.96;80.15;101444.22;6139550;29;20206;-73
2021/01/18 14:39:09;;;;;;;4.70;4.40;;;;;;;1.07;78.86;101435.16;6133107;29;20203;-73